createdAt,value
2019-04-12T00:01:52.045Z,101132.80
2019-04-12T00:04:20.692Z,101131.27
2019-04-12T00:06:49.416Z,101126.80
2019-04-12T00:09:18.121Z,101127.35
2019-04-12T00:11:46.763Z,101131.62
2019-04-12T00:14:15.371Z,101130.62
2019-04-12T00:16:44.607Z,101127.14
2019-04-12T00:19:13.910Z,101130.92
2019-04-12T00:21:45.759Z,101127.21
2019-04-12T00:24:14.074Z,101125.95
2019-04-12T00:26:44.011Z,101121.91
2019-04-12T00:29:12.714Z,101126.03
2019-04-12T00:31:41.354Z,101121.63
2019-04-12T00:34:09.991Z,101129.86
2019-04-12T00:36:38.633Z,101124.02
2019-04-12T00:39:07.975Z,101125.74
2019-04-12T00:41:36.694Z,101126.59
2019-04-12T00:44:05.394Z,101125.05
2019-04-12T00:46:37.670Z,101122.95
2019-04-12T00:49:04.541Z,101118.34
2019-04-12T00:51:33.261Z,101123.05
2019-04-12T00:54:01.876Z,101126.21
2019-04-12T00:56:30.581Z,101122.72
2019-04-12T00:58:59.293Z,101119.86
2019-04-12T01:01:50.131Z,101126.94
2019-04-12T01:04:25.843Z,101121.39
2019-04-12T01:06:54.556Z,101119.22
2019-04-12T01:09:23.387Z,101118.45
2019-04-12T01:11:55.061Z,101112.30
2019-04-12T01:14:22.421Z,101120.10
2019-04-12T01:16:51.050Z,101117.45
2019-04-12T01:19:19.744Z,101116.66
2019-04-12T01:21:48.534Z,101120.38
2019-04-12T01:24:17.177Z,101122.31
2019-04-12T01:26:46.370Z,101116.80
2019-04-12T01:29:18.101Z,101114.55
2019-04-12T01:31:46.221Z,101119.62
2019-04-12T01:34:14.845Z,101119.30
2019-04-12T01:36:43.473Z,101124.13
2019-04-12T01:39:12.098Z,101115.48
2019-04-12T01:41:40.747Z,101116.02
2019-04-12T01:44:09.432Z,101114.78
2019-04-12T01:46:38.045Z,101118.89
2019-04-12T01:49:06.684Z,101119.23
2019-04-12T01:51:35.468Z,101113.97
2019-04-12T01:54:04.100Z,101112.64
2019-04-12T01:56:32.709Z,101105.42
2019-04-12T01:59:01.355Z,101113.12
2019-04-12T02:01:29.987Z,101116.63
2019-04-12T02:03:58.606Z,101112.33
2019-04-12T02:06:27.297Z,101104.73
2019-04-12T02:08:55.938Z,101106.67
2019-04-12T02:11:24.575Z,101115.03
2019-04-12T02:13:53.208Z,101105.64
2019-04-12T02:16:21.811Z,101108.44
2019-04-12T02:18:50.451Z,101106.25
2019-04-12T02:21:19.887Z,101108.10
2019-04-12T02:23:48.653Z,101100.17
2019-04-12T02:26:17.368Z,101103.18
2019-04-12T02:28:54.956Z,101105.05
2019-04-12T02:31:46.930Z,101095.89
2019-04-12T02:34:15.969Z,101101.47
2019-04-12T02:36:44.644Z,101099.15
2019-04-12T02:39:13.455Z,101101.33
2019-04-12T02:41:43.140Z,101102.55
2019-04-12T02:44:13.349Z,101108.31
2019-04-12T02:46:55.410Z,101104.19
2019-04-12T02:49:34.973Z,101102.50
2019-04-12T02:52:16.756Z,101102.50
2019-04-12T02:54:52.014Z,101099.11
2019-04-12T02:57:36.051Z,101105.91
2019-04-12T03:00:08.221Z,101105.67
2019-04-12T03:02:37.073Z,101104.91
2019-04-12T03:05:06.209Z,101100.52
2019-04-12T03:07:34.952Z,101103.50
2019-04-12T03:10:03.825Z,101099.36
2019-04-12T03:12:33.976Z,101098.70
2019-04-12T03:15:05.650Z,101106.95
2019-04-12T03:17:34.769Z,101104.87
2019-04-12T03:20:03.580Z,101106.90
2019-04-12T03:22:32.399Z,101105.53
2019-04-12T03:25:01.233Z,101110.25
2019-04-12T03:27:30.234Z,101110.81
2019-04-12T03:29:59.231Z,101116.53
2019-04-12T03:32:27.940Z,101110.22
2019-04-12T03:34:56.742Z,101112.00
2019-04-12T03:37:25.452Z,101106.77
2019-04-12T03:39:55.475Z,101113.17
2019-04-12T03:42:24.206Z,101108.08
2019-04-12T03:44:52.909Z,101107.23
2019-04-12T03:47:21.631Z,101101.34
2019-04-12T03:49:50.636Z,101105.88
2019-04-12T03:52:19.329Z,101107.38
2019-04-12T03:54:48.122Z,101109.36
2019-04-12T03:57:16.749Z,101111.53
2019-04-12T03:59:45.470Z,101104.41
2019-04-12T04:02:19.402Z,101105.97
2019-04-12T04:04:48.090Z,101108.61
2019-04-12T04:07:16.800Z,101113.98
2019-04-12T04:09:45.525Z,101099.83
2019-04-12T04:12:14.238Z,101104.83
2019-04-12T04:14:44.084Z,101108.08
2019-04-12T04:17:30.759Z,101109.83
2019-04-12T04:20:24.506Z,101105.82
2019-04-12T04:22:58.761Z,101105.64
2019-04-12T04:25:50.105Z,101111.86
2019-04-12T04:28:31.134Z,101112.77
2019-04-12T04:31:04.962Z,101107.76
2019-04-12T04:33:33.851Z,101110.72
2019-04-12T04:36:03.161Z,101114.26
2019-04-12T04:38:31.860Z,101117.33
2019-04-12T04:41:02.246Z,101114.13
2019-04-12T04:43:31.226Z,101111.20
2019-04-12T04:45:59.966Z,101110.88
2019-04-12T04:48:28.817Z,101112.33
2019-04-12T04:50:57.543Z,101115.50
2019-04-12T04:53:26.269Z,101116.27
2019-04-12T04:55:55.024Z,101116.52
2019-04-12T04:58:23.754Z,101116.86
2019-04-12T05:00:53.389Z,101119.96
2019-04-12T05:03:22.075Z,101118.75
2019-04-12T05:05:50.831Z,101123.00
2019-04-12T05:08:19.663Z,101117.73
2019-04-12T05:10:48.368Z,101116.92
2019-04-12T05:13:17.386Z,101121.68
2019-04-12T05:15:46.106Z,101116.02
2019-04-12T05:18:14.823Z,101116.97
2019-04-12T05:20:43.517Z,101120.01
2019-04-12T05:23:12.245Z,101121.09
2019-04-12T05:25:40.949Z,101123.95
2019-04-12T05:28:09.627Z,101122.73
2019-04-12T05:30:38.310Z,101122.67
2019-04-12T05:33:07.332Z,101124.44
2019-04-12T05:35:36.018Z,101120.39
2019-04-12T05:38:04.741Z,101123.03
2019-04-12T05:40:33.435Z,101117.83
2019-04-12T05:43:02.173Z,101120.77
2019-04-12T05:45:36.610Z,101124.52
2019-04-12T05:48:26.377Z,101125.45
2019-04-12T05:50:55.096Z,101126.44
2019-04-12T05:53:23.874Z,101124.42
2019-04-12T05:55:54.959Z,101123.09
2019-04-12T05:58:38.123Z,101126.99
2019-04-12T06:01:31.031Z,101126.66
2019-04-12T06:03:59.797Z,101128.94
2019-04-12T06:06:32.319Z,101124.78
2019-04-12T06:08:58.837Z,101121.66
2019-04-12T06:11:27.669Z,101128.83
2019-04-12T06:13:56.941Z,101124.38
2019-04-12T06:16:25.719Z,101129.05
2019-04-12T06:18:54.553Z,101129.95
2019-04-12T06:21:34.854Z,101128.70
2019-04-12T06:24:04.643Z,101137.68
2019-04-12T06:26:40.190Z,101139.63
2019-04-12T06:29:08.891Z,101129.32
2019-04-12T06:31:37.650Z,101130.70
2019-04-12T06:34:06.339Z,101135.30
2019-04-12T06:36:35.046Z,101136.21
2019-04-12T06:39:06.084Z,101134.32
2019-04-12T06:41:34.788Z,101145.47
2019-04-12T06:44:03.440Z,101136.62
2019-04-12T06:46:32.098Z,101137.80
2019-04-12T06:49:00.793Z,101135.42
2019-04-12T06:51:30.373Z,101136.50
2019-04-12T06:53:59.063Z,101137.53
2019-04-12T06:56:50.209Z,101138.97
2019-04-12T06:59:18.895Z,101137.42
2019-04-12T07:02:05.139Z,101142.66
2019-04-12T07:04:36.249Z,101143.41
2019-04-12T07:07:05.032Z,101137.30
2019-04-12T07:09:33.671Z,101132.72
2019-04-12T07:12:02.353Z,101127.06
2019-04-12T07:14:31.059Z,101118.04
2019-04-12T07:17:00.149Z,101129.02
2019-04-12T07:19:28.856Z,101133.78
2019-04-12T07:21:57.812Z,101122.96
2019-04-12T07:24:27.045Z,101134.01
2019-04-12T07:26:55.901Z,101132.43
2019-04-12T07:29:24.608Z,101132.43
2019-04-12T07:31:53.331Z,101128.13
2019-04-12T07:34:22.109Z,101126.56
2019-04-12T07:36:50.825Z,101120.99
2019-04-12T07:39:19.683Z,101126.61
2019-04-12T07:41:48.499Z,101122.96
2019-04-12T07:44:17.306Z,101123.93
2019-04-12T07:46:46.040Z,101129.02
2019-04-12T07:49:14.738Z,101131.72
2019-04-12T07:51:51.619Z,101126.19
2019-04-12T07:54:45.103Z,101133.88
2019-04-12T07:57:32.820Z,101127.67
2019-04-12T08:00:16.631Z,101127.43
2019-04-12T08:03:01.326Z,101127.53
2019-04-12T08:05:34.925Z,101127.43
2019-04-12T08:08:06.323Z,101125.08
2019-04-12T08:10:35.092Z,101138.51
2019-04-12T08:13:17.449Z,101132.61
2019-04-12T08:15:46.077Z,101137.97
2019-04-12T08:18:14.791Z,101131.91
2019-04-12T08:20:43.409Z,101126.83
2019-04-12T08:23:12.048Z,101132.91
2019-04-12T08:25:42.078Z,101125.50
2019-04-12T08:28:12.442Z,101126.86
2019-04-12T08:30:41.133Z,101133.55
2019-04-12T08:33:09.942Z,101131.24
2019-04-12T08:35:38.639Z,101134.37
2019-04-12T08:38:07.343Z,101130.61
2019-04-12T08:40:36.273Z,101137.84
2019-04-12T08:43:05.138Z,101131.81
2019-04-12T08:45:33.882Z,101132.45
2019-04-12T08:48:02.630Z,101130.70
2019-04-12T08:50:31.400Z,101139.66
2019-04-12T08:53:00.208Z,101130.25
2019-04-12T08:55:28.923Z,101121.23
2019-04-12T08:57:57.676Z,101131.34
2019-04-12T09:00:26.362Z,101126.70
2019-04-12T09:02:59.256Z,101128.81
2019-04-12T09:05:32.484Z,101126.78
2019-04-12T09:07:57.383Z,101124.61
2019-04-12T09:10:28.562Z,101117.30
2019-04-12T09:12:57.354Z,101119.66
2019-04-12T09:15:26.222Z,101125.81
2019-04-12T09:17:55.053Z,101124.05
2019-04-12T09:20:51.675Z,101122.25
2019-04-12T09:23:48.084Z,101125.61
2019-04-12T09:26:16.845Z,101119.00
2019-04-12T09:28:45.643Z,101127.19
2019-04-12T09:31:14.374Z,101116.55
2019-04-12T09:33:46.332Z,101126.05
2019-04-12T09:36:13.746Z,101123.57
2019-04-12T09:38:42.515Z,101115.25
2019-04-12T09:41:11.224Z,101131.44
2019-04-12T09:43:39.934Z,101121.10
2019-04-12T09:46:08.666Z,101118.29
2019-04-12T09:48:37.388Z,101129.88
2019-04-12T09:51:06.268Z,101123.08
2019-04-12T09:53:34.990Z,101115.45
2019-04-12T09:56:04.160Z,101123.45
2019-04-12T09:58:37.473Z,101119.28
2019-04-12T10:01:03.742Z,101113.94
2019-04-12T10:03:32.460Z,101112.94
2019-04-12T10:06:01.303Z,101116.61
2019-04-12T10:08:30.090Z,101114.44
2019-04-12T10:10:58.915Z,101110.29
2019-04-12T10:13:34.610Z,101105.77
2019-04-12T10:16:03.593Z,101099.09
2019-04-12T10:18:32.285Z,101101.30
2019-04-12T10:21:01.014Z,101099.17
2019-04-12T10:23:29.911Z,101101.50
2019-04-12T10:25:59.855Z,101101.17
2019-04-12T10:28:28.554Z,101102.33
2019-04-12T10:30:57.341Z,101101.31
2019-04-12T10:33:26.153Z,101104.16
2019-04-12T10:35:55.032Z,101101.50
2019-04-12T10:38:23.846Z,101095.00
2019-04-12T10:40:52.557Z,101088.16
2019-04-12T10:43:21.290Z,101091.49
2019-04-12T10:46:04.798Z,101083.84
2019-04-12T10:48:43.639Z,101090.34
2019-04-12T10:51:46.452Z,101087.17
2019-04-12T10:54:23.897Z,101077.17
2019-04-12T10:56:52.652Z,101075.31
2019-04-12T10:59:23.343Z,101073.49
2019-04-12T11:01:52.168Z,101072.66
2019-04-12T11:04:20.880Z,101077.83
2019-04-12T11:06:49.603Z,101076.50
2019-04-12T11:09:18.322Z,101067.49
2019-04-12T11:11:48.781Z,101072.33
2019-04-12T11:14:17.510Z,101092.33
2019-04-12T11:16:46.251Z,101071.16
2019-04-12T11:19:14.943Z,101069.65
2019-04-12T11:21:45.311Z,101057.16
2019-04-12T11:24:14.076Z,101057.47
2019-04-12T11:26:53.218Z,101067.48
2019-04-12T11:29:28.645Z,101067.98
2019-04-12T11:31:57.378Z,101065.80
2019-04-12T11:34:26.580Z,101066.66
2019-04-12T11:36:55.707Z,101067.48
2019-04-12T11:39:28.258Z,101067.23
2019-04-12T11:41:57.103Z,101069.45
2019-04-12T11:44:25.898Z,101065.05
2019-04-12T11:46:54.612Z,101055.81
2019-04-12T11:49:23.481Z,101058.31
2019-04-12T11:51:55.809Z,101055.84
2019-04-12T11:54:24.454Z,101061.18
2019-04-12T11:56:53.561Z,101068.63
2019-04-12T11:59:32.686Z,101066.92
2019-04-12T12:02:19.019Z,101067.56
2019-04-12T12:05:12.353Z,101066.78
2019-04-12T12:07:50.306Z,101068.25
2019-04-12T12:10:39.822Z,101072.65
2019-04-12T12:13:22.731Z,101062.97
2019-04-12T12:16:09.216Z,101076.16
2019-04-12T12:18:41.388Z,101066.97
2019-04-12T12:21:10.166Z,101060.47
2019-04-12T12:23:38.881Z,101064.63
2019-04-12T12:26:10.805Z,101068.56
2019-04-12T12:28:40.774Z,101064.53
2019-04-12T12:31:09.729Z,101069.03
2019-04-12T12:33:38.451Z,101071.41
2019-04-12T12:36:07.287Z,101061.06
2019-04-12T12:38:36.067Z,101051.56
2019-04-12T12:41:04.853Z,101054.36
2019-04-12T12:43:33.570Z,101053.35
2019-04-12T12:46:02.426Z,101056.59
2019-04-12T12:48:31.207Z,101057.58
2019-04-12T12:51:00.002Z,101055.12
2019-04-12T12:53:28.907Z,101056.45
2019-04-12T12:55:57.718Z,101055.77
2019-04-12T12:58:29.748Z,101057.72
2019-04-12T13:01:00.677Z,101057.56
2019-04-12T13:03:29.434Z,101054.23
2019-04-12T13:06:01.910Z,101044.27
2019-04-12T13:08:32.911Z,101051.73
2019-04-12T13:11:01.649Z,101052.39
2019-04-12T13:13:34.433Z,101059.55
2019-04-12T13:16:03.140Z,101063.63
2019-04-12T13:18:31.913Z,101049.83
2019-04-12T13:21:00.744Z,101050.99
2019-04-12T13:23:31.749Z,101050.00
2019-04-12T13:26:00.582Z,101056.01
2019-04-12T13:28:29.349Z,101058.68
2019-04-12T13:31:20.539Z,101057.84
2019-04-12T13:34:27.782Z,101055.84
2019-04-12T13:37:27.544Z,101057.17
2019-04-12T13:40:18.009Z,101051.67
2019-04-12T13:42:48.309Z,101051.84
2019-04-12T13:45:45.548Z,101052.16
2019-04-12T13:48:14.308Z,101051.34
2019-04-12T13:50:43.176Z,101050.14
2019-04-12T13:53:12.419Z,101052.14
2019-04-12T13:55:41.224Z,101044.13
2019-04-12T13:58:10.251Z,101043.34
2019-04-12T14:00:39.333Z,101042.68
2019-04-12T14:03:08.109Z,101038.82
2019-04-12T14:05:40.043Z,101035.66
2019-04-12T14:08:08.750Z,101036.01
2019-04-12T14:10:40.222Z,101042.83
2019-04-12T14:13:09.385Z,101041.50
2019-04-12T14:15:38.206Z,101051.67
2019-04-12T14:18:07.056Z,101052.16
2019-04-12T14:20:35.778Z,101042.83
2019-04-12T14:23:05.076Z,101047.17
2019-04-12T14:25:33.798Z,101049.84
2019-04-12T14:28:03.153Z,101043.98
2019-04-12T14:30:44.503Z,101054.50
2019-04-12T14:33:34.933Z,101052.64
2019-04-12T14:36:09.348Z,101053.80
2019-04-12T14:38:38.062Z,101051.00
2019-04-12T14:41:06.937Z,101050.51
2019-04-12T14:43:57.865Z,101051.49
2019-04-12T14:46:30.517Z,101055.98
2019-04-12T14:49:00.539Z,101055.30
2019-04-12T14:51:29.348Z,101061.13
2019-04-12T14:53:58.098Z,101059.46
2019-04-12T14:56:26.901Z,101045.30
2019-04-12T14:58:55.701Z,101058.44
2019-04-12T15:01:35.904Z,101056.31
2019-04-12T15:04:04.719Z,101056.64
2019-04-12T15:07:03.392Z,101050.47
2019-04-12T15:09:32.148Z,101056.97
2019-04-12T15:12:01.021Z,101047.95
2019-04-12T15:14:29.840Z,101056.77
2019-04-12T15:16:58.955Z,101050.61
2019-04-12T15:19:27.944Z,101057.09
2019-04-12T15:21:56.744Z,101053.77
2019-04-12T15:24:25.558Z,101058.59
2019-04-12T15:26:54.358Z,101051.09
2019-04-12T15:29:24.130Z,101054.77
2019-04-12T15:31:55.527Z,101054.53
2019-04-12T15:34:26.731Z,101063.67
2019-04-12T15:36:55.512Z,101069.64
2019-04-12T15:39:24.138Z,101063.80
2019-04-12T15:41:52.876Z,101061.98
2019-04-12T15:44:21.563Z,101062.97
2019-04-12T15:46:50.232Z,101067.31
2019-04-12T15:49:18.858Z,101057.94
2019-04-12T15:51:47.525Z,101062.31
2019-04-12T15:54:16.156Z,101058.61
2019-04-12T15:56:44.876Z,101058.77
2019-04-12T15:59:13.669Z,101068.44
2019-04-12T16:01:42.382Z,101060.48
2019-04-12T16:04:13.112Z,101065.23
2019-04-12T16:06:41.871Z,101070.29
2019-04-12T16:09:17.014Z,101073.11
2019-04-12T16:12:25.757Z,101072.45
2019-04-12T16:15:35.331Z,101073.79
2019-04-12T16:18:11.600Z,101076.48
2019-04-12T16:20:40.876Z,101070.64
2019-04-12T16:23:09.801Z,101072.47
2019-04-12T16:25:38.646Z,101078.44
2019-04-12T16:28:23.904Z,101080.45
2019-04-12T16:31:02.832Z,101078.27
2019-04-12T16:33:50.478Z,101079.20
2019-04-12T16:36:28.793Z,101087.83
2019-04-12T16:39:12.381Z,101083.34
2019-04-12T16:41:45.953Z,101087.00
2019-04-12T16:44:15.815Z,101082.45
2019-04-12T16:46:44.640Z,101080.46
2019-04-12T16:49:13.389Z,101079.48
2019-04-12T16:51:42.214Z,101082.16
2019-04-12T16:54:13.178Z,101084.64
2019-04-12T16:56:42.164Z,101085.66
2019-04-12T16:59:10.885Z,101095.66
2019-04-12T17:01:42.319Z,101088.61
2019-04-12T17:04:11.167Z,101098.08
2019-04-12T17:06:43.183Z,101090.41
2019-04-12T17:09:34.556Z,101090.37
2019-04-12T17:12:05.145Z,101099.34
2019-04-12T17:14:33.963Z,101084.30
2019-04-12T17:17:09.633Z,101092.66
2019-04-12T17:19:39.723Z,101089.45
2019-04-12T17:22:25.166Z,101097.98
2019-04-12T17:25:06.232Z,101087.83
2019-04-12T17:27:42.685Z,101092.63
2019-04-12T17:30:42.333Z,101092.28
2019-04-12T17:33:39.160Z,101094.53
2019-04-12T17:36:18.618Z,101094.18
2019-04-12T17:41:53.411Z,101092.98
2019-04-12T17:44:36.960Z,101093.50
2019-04-12T17:47:11.931Z,101095.81
2019-04-12T17:50:10.753Z,101091.84
2019-04-12T17:55:44.893Z,101097.27
2019-04-12T17:58:21.781Z,101096.84
2019-04-12T18:01:06.385Z,101098.69
2019-04-12T18:03:41.484Z,101092.47
2019-04-12T18:06:17.435Z,101098.63
2019-04-12T18:08:51.304Z,101095.00
2019-04-12T18:11:59.954Z,101100.58
2019-04-12T18:14:56.833Z,101096.35
2019-04-12T18:17:29.083Z,101098.60
2019-04-12T18:20:13.402Z,101108.91
2019-04-12T18:22:56.086Z,101110.67
2019-04-12T18:25:42.316Z,101104.80
2019-04-12T18:29:07.013Z,101110.67
2019-04-12T18:31:40.000Z,101115.23
2019-04-12T18:34:15.103Z,101117.93
2019-04-12T18:36:45.318Z,101119.62
2019-04-12T18:39:27.486Z,101121.88
2019-04-12T18:42:22.360Z,101118.51
2019-04-12T18:44:57.385Z,101126.45
2019-04-12T18:48:05.086Z,101124.80
2019-04-12T18:53:28.785Z,101125.56
2019-04-12T18:56:05.939Z,101131.01
2019-04-12T18:58:52.075Z,101130.81
2019-04-12T19:01:35.748Z,101140.91
2019-04-12T19:04:06.258Z,101142.32
2019-04-12T19:06:51.562Z,101143.61
2019-04-12T19:09:34.076Z,101145.11
2019-04-12T19:12:18.737Z,101141.48
2019-04-12T19:14:54.754Z,101136.72
2019-04-12T19:17:41.795Z,101148.24
2019-04-12T19:20:44.909Z,101137.90
2019-04-12T19:23:49.589Z,101140.23
2019-04-12T19:26:28.422Z,101132.78
2019-04-12T19:29:12.179Z,101140.31
2019-04-12T19:32:01.430Z,101133.63
2019-04-12T19:35:02.229Z,101141.32
2019-04-12T19:38:07.542Z,101136.97
2019-04-12T19:40:34.392Z,101143.57
2019-04-12T19:43:02.982Z,101138.02
2019-04-12T19:45:42.187Z,101142.53
2019-04-12T19:48:15.482Z,101142.33
2019-04-12T19:50:49.177Z,101148.36
2019-04-12T19:53:53.163Z,101142.61
2019-04-12T19:56:43.103Z,101149.05
2019-04-12T19:59:00.673Z,101145.59
2019-04-12T20:01:34.716Z,101151.98
2019-04-12T20:04:25.700Z,101148.71
2019-04-12T20:07:07.059Z,101153.70
2019-04-12T20:09:37.505Z,101153.59
2019-04-12T20:12:21.938Z,101153.74
2019-04-12T20:15:08.511Z,101154.43
2019-04-12T20:17:49.695Z,101149.59
2019-04-12T20:20:29.483Z,101155.37
2019-04-12T20:23:12.000Z,101155.60
2019-04-12T20:25:51.611Z,101156.77
2019-04-12T20:29:06.621Z,101155.80
2019-04-12T20:31:16.588Z,101150.50
2019-04-12T20:34:39.718Z,101152.57
2019-04-12T20:36:30.592Z,101150.30
2019-04-12T20:39:06.963Z,101143.97
2019-04-12T20:41:56.440Z,101147.54
2019-04-12T20:44:52.941Z,101155.83
2019-04-12T20:47:35.109Z,101152.70
2019-04-12T20:50:27.023Z,101149.35
2019-04-12T20:53:02.811Z,101154.71
2019-04-12T20:55:55.825Z,101148.66
2019-04-12T20:58:41.185Z,101149.61
2019-04-12T21:01:38.437Z,101147.66
2019-04-12T21:04:13.818Z,101144.04
2019-04-12T21:06:51.195Z,101143.09
2019-04-12T21:09:47.551Z,101154.81
2019-04-12T21:13:00.006Z,101159.22
2019-04-12T21:15:37.301Z,101154.55
2019-04-12T21:21:15.387Z,101148.04
2019-04-12T21:23:48.271Z,101150.27
2019-04-12T21:26:37.519Z,101156.54
2019-04-12T21:29:11.459Z,101159.70
2019-04-12T21:31:52.976Z,101149.83
2019-04-12T21:34:26.791Z,101144.16
2019-04-12T21:37:15.681Z,101151.63
2019-04-12T21:39:36.619Z,101149.88
2019-04-12T21:42:09.705Z,101150.73
2019-04-12T21:44:47.435Z,101149.13
2019-04-12T21:47:19.682Z,101144.73
2019-04-12T21:50:01.850Z,101142.83
2019-04-12T21:52:32.819Z,101143.19
2019-04-12T21:55:11.448Z,101140.12
2019-04-12T21:57:45.603Z,101144.31
2019-04-12T22:00:36.481Z,101146.12
2019-04-12T22:03:09.131Z,101149.34
2019-04-12T22:05:46.425Z,101150.97
2019-04-12T22:08:14.970Z,101155.84
2019-04-12T22:10:44.282Z,101159.77
2019-04-12T22:13:15.007Z,101157.46
2019-04-12T22:15:48.346Z,101159.61
2019-04-12T22:18:19.213Z,101162.75
2019-04-12T22:20:52.024Z,101159.43
2019-04-12T22:23:25.267Z,101157.89
2019-04-12T22:25:57.757Z,101159.55
2019-04-12T22:28:33.435Z,101163.27
2019-04-12T22:31:24.060Z,101159.15
2019-04-12T22:33:55.926Z,101156.20
2019-04-12T22:36:29.430Z,101157.05
2019-04-12T22:39:50.667Z,101160.19
2019-04-12T22:41:54.769Z,101162.41
2019-04-12T22:44:47.385Z,101154.56
2019-04-12T22:47:24.679Z,101154.19
2019-04-12T22:50:00.410Z,101154.33
2019-04-12T22:52:34.221Z,101144.46
2019-04-12T22:55:17.490Z,101150.58
2019-04-12T22:57:56.526Z,101144.38
2019-04-12T23:00:28.886Z,101144.80
2019-04-12T23:03:04.214Z,101148.96
2019-04-12T23:05:37.382Z,101149.89
2019-04-12T23:08:17.115Z,101154.61
2019-04-12T23:10:54.406Z,101145.84
2019-04-12T23:13:25.435Z,101147.65
2019-04-12T23:16:18.738Z,101149.89
2019-04-12T23:18:57.835Z,101161.05
2019-04-12T23:21:37.040Z,101148.83
2019-04-12T23:24:13.236Z,101150.78
2019-04-12T23:26:45.768Z,101155.45
2019-04-12T23:29:35.831Z,101152.78
2019-04-12T23:32:04.020Z,101149.65
2019-04-12T23:34:43.754Z,101145.27
2019-04-12T23:37:16.861Z,101153.36
2019-04-12T23:40:18.002Z,101146.52
2019-04-12T23:42:54.252Z,101143.42
2019-04-12T23:46:25.043Z,101153.88
2019-04-12T23:49:11.092Z,101144.90
2019-04-12T23:55:57.529Z,101147.40
2019-04-12T23:57:58.912Z,101143.02
